SBRB

Details ICAO SBRB (RBR)
Name Presidente Medici
Region Brazil
Timezone America/Rio_Branco (UTC-5.0)
Plans Departing 55
Arriving 42
Stats Elevation 634 ft / 193 m (AMSL)
Location -9.869157° -67.894072°
Runways 1
Magnetic Variation 9.762° W
Sunrise 2018-05-28 10:42:23 UTC / 2018-05-28 05:42:23 Local
Sunset 2018-05-28 22:18:15 UTC / 2018-05-28 17:18:15 Local
Advertisement - Login to hide

Runways

ID Width Length Bearing (true) Bearing (mag) Surface Threshold Offset Overrun Length
06 148 ft / 45 m 7,115 ft / 2,169 m 57.02° 66.78° Asphalt 0 ft / 0 m 120 ft / 37 m
24 148 ft / 45 m 7,115 ft / 2,169 m 237.01° 246.77° Asphalt 0 ft / 0 m 180 ft / 55 m

Approach Navaids

Runway Type Ident Frequency Range Bearing (true) Bearing (mag) Slope Elevation
06 Localiser IRB 109.30 MHz 18 nm / 33 km 56.93° 66.69° - 634 ft / 193 m (AMSL)

Map

Weather


0- 5 10 15 20 25 30 35+ Temperature / ° C

Clouds and Precipitation
Forecast for 2018-05-28 00:00 UTC. Updated 9 hours ago

Ground ~20,000 ft ~40,000 ft Winds

METAR

Not found

TAF

TAF SBRB 272200Z 2800/2824 18003KT CAVOK TN20/2810Z TX32/2818Z BECMG 2817/2819 9999 BKN040 BECMG 2821/2823 CAVOK RMK PDY

Frequencies

Tower 118.70 MHz RIO BRANCO TWR
Approach 119.90 MHz RIO BRANCO APP
Warning: Do not use this data for real-world aviation or navigation. No guarantee of current accuracy is given.